Time;durP1;ratioP1;P1;durP2;ratioP2;P2;SDS_P1;SDS_P2;PMS_P1;PMS_P2;Temp;Humidity;BMP_temperature;BMP_pressure;BME280_temperature;BME280_humidity;BME280_pressure;Samples;Min_cycle;Max_cycle;Signal;HPM_P1;HPM_P2
2024/01/21 00:00:36;;;;;;;14.35;8.63;;;;;;;;;;5102545;27;20179;-62
2024/01/21 00:03:03;;;;;;;13.35;7.82;;;;;;;;;;5102567;27;21230;-61
2024/01/21 00:05:29;;;;;;;12.43;7.05;;;;;;;;;;5102173;27;20052;-60
2024/01/21 00:07:56;;;;;;;10.75;7.18;;;;;;;;;;5102556;27;20079;-62
2024/01/21 00:10:22;;;;;;;10.65;7.80;;;;;;;;;;5102638;27;20597;-59
2024/01/21 00:12:48;;;;;;;9.20;6.68;;;;;;;;;;5103042;27;20121;-60
2024/01/21 00:15:15;;;;;;;10.68;6.53;;;;;;;;;;5102297;27;20063;-62
2024/01/21 00:17:41;;;;;;;11.65;7.00;;;;;;;;;;5102385;27;20590;-62
2024/01/21 00:20:08;;;;;;;9.45;6.75;;;;;;;;;;5102889;27;20532;-62
2024/01/21 00:22:35;;;;;;;11.63;7.13;;;;;;;;;;5102577;27;20060;-62
2024/01/21 00:25:02;;;;;;;12.30;7.03;;;;;;;;;;5103706;27;20579;-62
2024/01/21 00:27:28;;;;;;;12.45;6.97;;;;;;;;;;5106454;27;20485;-61
2024/01/21 00:29:54;;;;;;;14.48;7.55;;;;;;;;;;5105298;27;20528;-61
2024/01/21 00:32:21;;;;;;;9.70;6.63;;;;;;;;;;5106408;27;20513;-61
2024/01/21 00:34:47;;;;;;;11.88;6.60;;;;;;;;;;5106104;27;20097;-61
2024/01/21 00:37:14;;;;;;;9.30;6.57;;;;;;;;;;5105631;27;20143;-60
2024/01/21 00:39:40;;;;;;;10.88;7.32;;;;;;;;;;5104809;27;20134;-61
2024/01/21 00:42:06;;;;;;;12.13;6.95;;;;;;;;;;5105516;27;20056;-61
2024/01/21 00:44:34;;;;;;;10.88;6.57;;;;;;;;;;5105926;27;20052;-61
2024/01/21 00:47:01;;;;;;;14.07;7.03;;;;;;;;;;5105409;27;20134;-62
2024/01/21 00:49:29;;;;;;;9.57;6.35;;;;;;;;;;5105902;27;20498;-61
2024/01/21 00:51:56;;;;;;;10.82;6.72;;;;;;;;;;5105080;27;20075;-62
2024/01/21 00:54:22;;;;;;;12.57;6.90;;;;;;;;;;5104958;27;20676;-62
2024/01/21 00:56:49;;;;;;;8.70;5.95;;;;;;;;;;5105254;27;20056;-62
2024/01/21 00:59:15;;;;;;;12.18;7.25;;;;;;;;;;5105406;27;20048;-61
2024/01/21 01:01:41;;;;;;;11.88;6.30;;;;;;;;;;5105323;27;20078;-62
2024/01/21 01:04:09;;;;;;;10.95;6.38;;;;;;;;;;5105807;27;20125;-62
2024/01/21 01:06:35;;;;;;;10.60;6.32;;;;;;;;;;5105873;27;20597;-62
2024/01/21 01:09:01;;;;;;;10.25;6.80;;;;;;;;;;5105546;27;20075;-61
2024/01/21 01:11:28;;;;;;;9.90;5.82;;;;;;;;;;5104877;28;20489;-61
2024/01/21 01:13:54;;;;;;;8.88;6.00;;;;;;;;;;5104714;27;20522;-62
2024/01/21 01:16:22;;;;;;;8.23;5.68;;;;;;;;;;5105659;27;20054;-61
2024/01/21 01:18:49;;;;;;;9.85;6.03;;;;;;;;;;5104616;27;20048;-63
2024/01/21 01:21:16;;;;;;;9.02;5.22;;;;;;;;;;5104105;28;20139;-61
2024/01/21 01:23:42;;;;;;;10.18;6.25;;;;;;;;;;5104189;27;20062;-61
2024/01/21 01:26:09;;;;;;;10.18;5.68;;;;;;;;;;5105450;27;20056;-62
2024/01/21 01:28:36;;;;;;;10.90;6.70;;;;;;;;;;5105528;28;20052;-62
2024/01/21 01:31:02;;;;;;;9.77;5.50;;;;;;;;;;5104415;27;20143;-63
2024/01/21 01:33:28;;;;;;;7.70;5.30;;;;;;;;;;5104996;27;20054;-62
2024/01/21 01:35:55;;;;;;;8.50;5.43;;;;;;;;;;5103742;27;20139;-60
2024/01/21 01:38:22;;;;;;;9.18;5.82;;;;;;;;;;5104417;27;20051;-63
2024/01/21 01:40:48;;;;;;;9.05;4.78;;;;;;;;;;5104857;27;20106;-62
2024/01/21 01:43:14;;;;;;;6.47;4.80;;;;;;;;;;5104863;27;20052;-62
2024/01/21 01:45:41;;;;;;;7.93;5.22;;;;;;;;;;5104829;27;21202;-62
2024/01/21 01:48:08;;;;;;;7.07;4.47;;;;;;;;;;5105002;27;20053;-62
2024/01/21 01:50:34;;;;;;;6.68;4.75;;;;;;;;;;5105270;27;20060;-62
2024/01/21 01:53:01;;;;;;;8.05;5.15;;;;;;;;;;5104095;27;20052;-62
2024/01/21 01:55:28;;;;;;;8.13;4.82;;;;;;;;;;5103710;27;20521;-61
2024/01/21 01:57:54;;;;;;;6.82;4.47;;;;;;;;;;5104248;27;20048;-62
2024/01/21 02:00:21;;;;;;;8.85;4.20;;;;;;;;;;5104432;27;20056;-62
2024/01/21 02:02:47;;;;;;;9.30;4.70;;;;;;;;;;5103952;27;20052;-62
2024/01/21 02:05:14;;;;;;;9.40;4.82;;;;;;;;;;5104639;27;20049;-62
2024/01/21 02:07:40;;;;;;;7.55;4.50;;;;;;;;;;5103748;27;20139;-61
2024/01/21 02:10:07;;;;;;;9.07;4.32;;;;;;;;;;5105501;27;20080;-63
2024/01/21 02:12:33;;;;;;;7.30;4.03;;;;;;;;;;5107271;27;20141;-62
2024/01/21 02:15:00;;;;;;;6.45;3.88;;;;;;;;;;5106651;27;20079;-63
2024/01/21 02:17:26;;;;;;;6.80;4.47;;;;;;;;;;5106894;27;20056;-63
2024/01/21 02:19:53;;;;;;;6.43;3.90;;;;;;;;;;5104723;27;20052;-63
2024/01/21 02:22:20;;;;;;;6.13;3.85;;;;;;;;;;5103030;28;20113;-61
2024/01/21 02:24:46;;;;;;;5.53;3.40;;;;;;;;;;5103738;27;20159;-62
2024/01/21 02:27:13;;;;;;;9.48;4.15;;;;;;;;;;5104160;27;20139;-62
2024/01/21 02:29:40;;;;;;;4.85;3.28;;;;;;;;;;5104214;27;20055;-61
2024/01/21 02:32:06;;;;;;;5.05;3.67;;;;;;;;;;5104106;27;20071;-62
2024/01/21 02:34:32;;;;;;;7.65;4.18;;;;;;;;;;5103984;27;20056;-62
2024/01/21 02:36:59;;;;;;;6.28;4.13;;;;;;;;;;5102685;27;20650;-62
2024/01/21 02:39:25;;;;;;;8.00;3.95;;;;;;;;;;5103351;27;20055;-60
2024/01/21 02:41:52;;;;;;;5.68;3.60;;;;;;;;;;5103619;27;20048;-60
2024/01/21 02:44:18;;;;;;;6.20;3.50;;;;;;;;;;5103994;27;20597;-61
2024/01/21 02:46:44;;;;;;;6.07;4.00;;;;;;;;;;5103085;27;20063;-62
2024/01/21 02:49:11;;;;;;;7.53;4.05;;;;;;;;;;5102099;27;20541;-62
2024/01/21 02:51:38;;;;;;;6.13;4.15;;;;;;;;;;5103674;27;20122;-61
2024/01/21 02:54:05;;;;;;;5.45;3.22;;;;;;;;;;5104013;27;20058;-62
2024/01/21 02:56:31;;;;;;;7.25;3.92;;;;;;;;;;5103667;27;20106;-62
2024/01/21 02:58:58;;;;;;;6.82;3.85;;;;;;;;;;5103239;27;20157;-62
2024/01/21 03:01:24;;;;;;;6.35;3.95;;;;;;;;;;5103742;27;20783;-63
2024/01/21 03:03:50;;;;;;;7.30;3.50;;;;;;;;;;5102964;27;20878;-62
2024/01/21 03:06:17;;;;;;;9.30;4.50;;;;;;;;;;5104418;27;20052;-61
2024/01/21 03:08:44;;;;;;;5.78;3.53;;;;;;;;;;5103025;27;20054;-62
2024/01/21 03:11:10;;;;;;;6.22;3.88;;;;;;;;;;5103805;27;20494;-61
2024/01/21 03:13:37;;;;;;;5.00;3.25;;;;;;;;;;5103286;27;20052;-60
2024/01/21 03:16:03;;;;;;;7.85;4.72;;;;;;;;;;5103318;27;20063;-61
2024/01/21 03:18:29;;;;;;;5.10;3.65;;;;;;;;;;5102936;27;20142;-62
2024/01/21 03:20:56;;;;;;;5.22;3.58;;;;;;;;;;5103265;27;20052;-62
2024/01/21 03:23:23;;;;;;;5.50;3.38;;;;;;;;;;5103129;27;20160;-62
2024/01/21 03:25:49;;;;;;;5.93;3.72;;;;;;;;;;5103307;27;20472;-62
2024/01/21 03:28:15;;;;;;;5.63;3.55;;;;;;;;;;5102764;27;20060;-62
2024/01/21 03:30:42;;;;;;;6.10;3.65;;;;;;;;;;5103428;27;20548;-62
2024/01/21 03:33:09;;;;;;;4.82;3.72;;;;;;;;;;5103264;27;20052;-60
2024/01/21 03:35:35;;;;;;;6.18;3.47;;;;;;;;;;5103442;27;20052;-61
2024/01/21 03:38:02;;;;;;;6.07;3.38;;;;;;;;;;5102909;27;20044;-62
2024/01/21 03:40:28;;;;;;;6.25;3.60;;;;;;;;;;5103319;27;20133;-61
2024/01/21 03:42:54;;;;;;;6.70;3.58;;;;;;;;;;5102772;27;20101;-61
2024/01/21 03:45:21;;;;;;;6.07;3.58;;;;;;;;;;5103595;27;20059;-62
2024/01/21 03:47:48;;;;;;;6.10;3.20;;;;;;;;;;5102893;27;20138;-62
2024/01/21 03:50:20;;;;;;;5.88;4.03;;;;;;;;;;5102813;27;20048;-63
2024/01/21 03:52:47;;;;;;;5.10;3.03;;;;;;;;;;5102941;27;20048;-62
2024/01/21 03:55:14;;;;;;;5.05;3.03;;;;;;;;;;5102192;27;20598;-61
2024/01/21 03:57:40;;;;;;;8.07;3.28;;;;;;;;;;5102839;27;20059;-59
2024/01/21 04:00:08;;;;;;;7.85;3.67;;;;;;;;;;5104906;27;20052;-61
2024/01/21 04:02:35;;;;;;;6.07;3.63;;;;;;;;;;5105134;27;20066;-62
2024/01/21 04:05:03;;;;;;;5.43;3.72;;;;;;;;;;5106253;27;20052;-61
2024/01/21 04:07:30;;;;;;;4.82;3.45;;;;;;;;;;5106294;27;20052;-60
2024/01/21 04:09:56;;;;;;;6.53;3.85;;;;;;;;;;5106240;27;20048;-60
2024/01/21 04:12:22;;;;;;;7.47;3.80;;;;;;;;;;5107547;27;20063;-61
2024/01/21 04:14:49;;;;;;;7.28;3.85;;;;;;;;;;5106861;27;20063;-62
2024/01/21 04:17:15;;;;;;;5.35;3.25;;;;;;;;;;5106689;27;20129;-63
2024/01/21 04:19:42;;;;;;;5.47;3.22;;;;;;;;;;5106404;27;20149;-62
2024/01/21 04:22:08;;;;;;;7.10;4.05;;;;;;;;;;5107132;27;20060;-62
2024/01/21 04:24:35;;;;;;;5.35;3.40;;;;;;;;;;5105885;27;20059;-62
2024/01/21 04:27:01;;;;;;;7.07;3.05;;;;;;;;;;5105554;28;20056;-62
2024/01/21 04:29:27;;;;;;;7.68;3.75;;;;;;;;;;5106418;27;20052;-62
2024/01/21 04:31:54;;;;;;;5.88;3.40;;;;;;;;;;5105636;27;20051;-60
2024/01/21 04:34:20;;;;;;;5.97;3.50;;;;;;;;;;5106364;27;20448;-62
2024/01/21 04:36:47;;;;;;;5.15;3.38;;;;;;;;;;5105835;28;20048;-62
2024/01/21 04:39:18;;;;;;;4.82;3.63;;;;;;;;;;5105437;28;20058;-61
2024/01/21 04:41:45;;;;;;;6.72;3.40;;;;;;;;;;5106239;27;20087;-61
2024/01/21 04:44:11;;;;;;;5.10;2.85;;;;;;;;;;5107943;27;20052;-61
2024/01/21 04:46:38;;;;;;;5.68;3.47;;;;;;;;;;5108417;27;20056;-62
2024/01/21 04:49:04;;;;;;;6.20;3.40;;;;;;;;;;5107750;28;20519;-62
2024/01/21 04:51:31;;;;;;;7.10;4.00;;;;;;;;;;5107594;27;20145;-62
2024/01/21 04:53:57;;;;;;;4.30;2.90;;;;;;;;;;5108045;27;20139;-62
2024/01/21 04:56:23;;;;;;;7.30;3.70;;;;;;;;;;5107547;27;20064;-62
2024/01/21 04:58:50;;;;;;;4.78;3.65;;;;;;;;;;5108149;27;20058;-61
2024/01/21 05:01:21;;;;;;;6.55;3.75;;;;;;;;;;5107572;27;20143;-61
2024/01/21 05:03:48;;;;;;;8.07;4.10;;;;;;;;;;5107841;27;20055;-61
2024/01/21 05:06:15;;;;;;;7.03;3.65;;;;;;;;;;5107971;28;20579;-60
2024/01/21 05:08:41;;;;;;;8.07;4.15;;;;;;;;;;5108364;27;20051;-65
2024/01/21 05:11:08;;;;;;;5.65;4.07;;;;;;;;;;5106931;27;20083;-61
2024/01/21 05:13:34;;;;;;;6.40;3.38;;;;;;;;;;5107657;27;20056;-61
2024/01/21 05:16:16;;;;;;;6.53;3.08;;;;;;;;;;5105777;27;20052;-62
2024/01/21 05:18:44;;;;;;;5.75;3.55;;;;;;;;;;5105320;27;20162;-61
2024/01/21 05:21:11;;;;;;;5.10;3.45;;;;;;;;;;5105674;27;20080;-61
2024/01/21 05:23:38;;;;;;;6.68;3.72;;;;;;;;;;5105503;27;20054;-62
2024/01/21 05:26:04;;;;;;;7.30;3.97;;;;;;;;;;5105266;27;20052;-62
2024/01/21 05:28:31;;;;;;;7.32;4.20;;;;;;;;;;5104687;27;20503;-62
2024/01/21 05:30:57;;;;;;;10.25;3.90;;;;;;;;;;5102745;27;20056;-60
2024/01/21 05:33:24;;;;;;;8.73;4.25;;;;;;;;;;5104644;28;20056;-61
2024/01/21 05:35:50;;;;;;;8.50;4.32;;;;;;;;;;5105144;27;20048;-61
2024/01/21 05:38:17;;;;;;;5.72;3.40;;;;;;;;;;5107193;27;20060;-62
2024/01/21 05:40:43;;;;;;;6.68;3.80;;;;;;;;;;5106909;27;20059;-62
2024/01/21 05:43:09;;;;;;;5.55;3.50;;;;;;;;;;5107379;27;20048;-62
2024/01/21 05:45:36;;;;;;;6.10;3.90;;;;;;;;;;5107251;27;20905;-62
2024/01/21 05:48:02;;;;;;;8.43;4.38;;;;;;;;;;5106237;27;20762;-62
2024/01/21 05:50:29;;;;;;;9.30;4.40;;;;;;;;;;5105249;27;20088;-62
2024/01/21 05:52:55;;;;;;;8.63;4.28;;;;;;;;;;5103800;27;20165;-61
2024/01/21 05:55:21;;;;;;;7.30;4.28;;;;;;;;;;5104118;27;20064;-61
2024/01/21 05:57:48;;;;;;;6.45;3.83;;;;;;;;;;5104196;27;20508;-61
2024/01/21 06:00:15;;;;;;;6.68;4.13;;;;;;;;;;5104926;27;20052;-60
2024/01/21 06:02:41;;;;;;;8.05;4.20;;;;;;;;;;5104700;27;20538;-62
2024/01/21 06:05:08;;;;;;;7.20;4.53;;;;;;;;;;5103907;27;20141;-61
2024/01/21 06:07:34;;;;;;;7.07;4.47;;;;;;;;;;5104810;27;20102;-62
2024/01/21 06:10:01;;;;;;;9.68;4.65;;;;;;;;;;5102747;27;20094;-62
2024/01/21 06:12:27;;;;;;;5.93;3.75;;;;;;;;;;5102788;27;20052;-62
2024/01/21 06:14:54;;;;;;;6.53;4.43;;;;;;;;;;5103942;27;20048;-61
2024/01/21 06:17:20;;;;;;;7.15;3.95;;;;;;;;;;5104767;27;20048;-61
2024/01/21 06:19:47;;;;;;;7.60;4.45;;;;;;;;;;5104162;27;20134;-62
2024/01/21 06:22:13;;;;;;;6.88;4.40;;;;;;;;;;5104135;27;20048;-62
2024/01/21 06:24:40;;;;;;;6.72;4.47;;;;;;;;;;5104439;27;20060;-59
2024/01/21 06:27:06;;;;;;;9.15;5.47;;;;;;;;;;5104289;27;20563;-62
2024/01/21 06:29:33;;;;;;;9.48;4.70;;;;;;;;;;5103765;27;20054;-61
2024/01/21 06:31:59;;;;;;;9.43;4.53;;;;;;;;;;5104047;27;20112;-62
2024/01/21 06:34:25;;;;;;;8.82;4.75;;;;;;;;;;5103820;27;20124;-62
2024/01/21 06:36:52;;;;;;;5.95;4.45;;;;;;;;;;5104077;27;20389;-61
2024/01/21 06:39:18;;;;;;;7.85;3.80;;;;;;;;;;5103792;27;20114;-61
2024/01/21 06:41:45;;;;;;;6.93;4.53;;;;;;;;;;5102499;27;20186;-62
2024/01/21 06:44:11;;;;;;;6.65;3.97;;;;;;;;;;5103991;27;20524;-62
2024/01/21 06:46:38;;;;;;;8.30;4.88;;;;;;;;;;5104494;27;20048;-61
2024/01/21 06:49:04;;;;;;;7.25;4.00;;;;;;;;;;5103413;27;20526;-62
2024/01/21 06:51:32;;;;;;;11.52;4.68;;;;;;;;;;5103870;27;20178;-62
2024/01/21 06:53:59;;;;;;;6.97;4.55;;;;;;;;;;5103344;27;20044;-61
2024/01/21 06:56:26;;;;;;;7.82;4.10;;;;;;;;;;5102929;27;20536;-60
2024/01/21 06:58:53;;;;;;;7.65;4.15;;;;;;;;;;5103060;27;20514;-61
2024/01/21 07:01:19;;;;;;;6.57;4.03;;;;;;;;;;5103756;27;20532;-61
2024/01/21 07:03:46;;;;;;;7.43;3.95;;;;;;;;;;5103548;27;20552;-62
2024/01/21 07:06:13;;;;;;;10.05;4.70;;;;;;;;;;5103297;27;20586;-61
2024/01/21 07:08:40;;;;;;;7.57;4.60;;;;;;;;;;5103206;27;20056;-60
2024/01/21 07:11:07;;;;;;;7.82;4.63;;;;;;;;;;5100963;28;20090;-62
2024/01/21 07:13:34;;;;;;;8.68;4.65;;;;;;;;;;5102851;27;20060;-62
2024/01/21 07:16:01;;;;;;;6.95;4.55;;;;;;;;;;5102995;27;20102;-61
2024/01/21 07:18:27;;;;;;;7.55;4.35;;;;;;;;;;5102841;27;20568;-61
2024/01/21 07:20:54;;;;;;;6.47;4.82;;;;;;;;;;5102672;27;20613;-60
2024/01/21 07:23:20;;;;;;;6.50;4.20;;;;;;;;;;5103650;27;20059;-62
2024/01/21 07:25:47;;;;;;;6.47;4.32;;;;;;;;;;5102778;27;20048;-61
2024/01/21 07:28:13;;;;;;;6.80;4.45;;;;;;;;;;5102897;27;20491;-61
2024/01/21 07:30:40;;;;;;;6.30;4.55;;;;;;;;;;5103545;27;20128;-60
2024/01/21 07:33:06;;;;;;;7.97;5.13;;;;;;;;;;5103382;27;20446;-61
2024/01/21 07:35:32;;;;;;;7.47;4.82;;;;;;;;;;5105089;27;20707;-61
2024/01/21 07:37:59;;;;;;;7.35;4.07;;;;;;;;;;5086276;28;20587;-61
2024/01/21 07:40:25;;;;;;;7.25;4.68;;;;;;;;;;5103554;28;20052;-61
2024/01/21 07:42:52;;;;;;;7.18;4.55;;;;;;;;;;5106425;27;20052;-60
2024/01/21 07:45:19;;;;;;;8.73;4.85;;;;;;;;;;5107259;27;20133;-61
2024/01/21 07:47:47;;;;;;;6.30;3.92;;;;;;;;;;5106980;27;20482;-62
2024/01/21 07:50:14;;;;;;;8.75;4.80;;;;;;;;;;5096596;27;20197;-61
2024/01/21 07:52:42;;;;;;;6.80;4.45;;;;;;;;;;5085851;28;20537;-61
2024/01/21 07:55:09;;;;;;;8.23;4.90;;;;;;;;;;5095388;27;20091;-61
2024/01/21 07:57:38;;;;;;;5.75;4.22;;;;;;;;;;5097048;27;20068;-62
2024/01/21 08:00:05;;;;;;;6.38;4.15;;;;;;;;;;5091233;28;20560;-61
2024/01/21 08:02:31;;;;;;;7.38;4.15;;;;;;;;;;5106686;27;20074;-59
2024/01/21 08:04:58;;;;;;;8.80;4.30;;;;;;;;;;5106203;27;20540;-61
2024/01/21 08:07:26;;;;;;;10.13;4.53;;;;;;;;;;5095083;27;20049;-61
2024/01/21 08:09:53;;;;;;;5.82;3.80;;;;;;;;;;5085152;28;20053;-60
2024/01/21 08:12:19;;;;;;;7.00;4.18;;;;;;;;;;5086412;28;20060;-61
2024/01/21 08:14:46;;;;;;;7.00;4.22;;;;;;;;;;5085754;28;20577;-60
2024/01/21 08:17:13;;;;;;;7.13;4.82;;;;;;;;;;5088642;28;20064;-62
2024/01/21 08:19:39;;;;;;;6.57;4.43;;;;;;;;;;5101771;27;20739;-59
2024/01/21 08:22:07;;;;;;;7.75;4.43;;;;;;;;;;5103631;27;20052;-62
2024/01/21 08:24:33;;;;;;;8.43;4.30;;;;;;;;;;5105772;27;20084;-62
2024/01/21 08:27:05;;;;;;;8.93;4.65;;;;;;;;;;5106174;27;20052;-62
2024/01/21 08:29:31;;;;;;;10.77;5.45;;;;;;;;;;5106186;27;20478;-61
2024/01/21 08:31:59;;;;;;;10.82;5.05;;;;;;;;;;5105148;27;20056;-60
2024/01/21 08:34:25;;;;;;;5.97;4.45;;;;;;;;;;5106093;27;20517;-61
2024/01/21 08:36:56;;;;;;;7.40;4.47;;;;;;;;;;5105154;27;20465;-61
2024/01/21 08:39:23;;;;;;;6.60;4.47;;;;;;;;;;5092528;27;20052;-62
2024/01/21 08:41:49;;;;;;;7.00;4.07;;;;;;;;;;5099802;28;20534;-60
2024/01/21 08:44:16;;;;;;;7.47;4.68;;;;;;;;;;5086083;28;20052;-62
2024/01/21 08:46:44;;;;;;;11.63;4.95;;;;;;;;;;5085472;28;20122;-60
2024/01/21 08:49:10;;;;;;;7.85;4.53;;;;;;;;;;5085286;28;20102;-62
2024/01/21 08:51:36;;;;;;;9.07;5.13;;;;;;;;;;5094834;27;20056;-62
2024/01/21 08:54:03;;;;;;;7.13;4.70;;;;;;;;;;5105077;27;20059;-60
2024/01/21 08:56:29;;;;;;;11.07;5.25;;;;;;;;;;5104890;27;20110;-61
2024/01/21 08:58:57;;;;;;;7.63;4.88;;;;;;;;;;5089926;27;20056;-62
2024/01/21 09:01:23;;;;;;;8.02;4.70;;;;;;;;;;5104275;28;20106;-63
2024/01/21 09:03:50;;;;;;;7.55;5.00;;;;;;;;;;5107585;27;20063;-61
2024/01/21 09:06:18;;;;;;;8.65;4.82;;;;;;;;;;5107990;27;20074;-60
2024/01/21 09:08:44;;;;;;;7.20;4.88;;;;;;;;;;5107615;27;20380;-61
2024/01/21 09:11:11;;;;;;;8.18;4.68;;;;;;;;;;5090182;27;20580;-62
2024/01/21 09:13:38;;;;;;;8.18;4.85;;;;;;;;;;5106666;27;20067;-62
2024/01/21 09:16:05;;;;;;;7.05;4.60;;;;;;;;;;5103625;28;20075;-61
2024/01/21 09:18:33;;;;;;;12.63;5.18;;;;;;;;;;5106130;27;20150;-60
2024/01/21 09:21:00;;;;;;;5.85;3.92;;;;;;;;;;5104785;27;20044;-61
2024/01/21 09:23:26;;;;;;;8.38;4.30;;;;;;;;;;5106010;27;20060;-61
2024/01/21 09:25:52;;;;;;;8.45;4.82;;;;;;;;;;5100652;27;20058;-61
2024/01/21 09:28:19;;;;;;;7.93;5.03;;;;;;;;;;5085219;28;20080;-62
2024/01/21 09:30:46;;;;;;;7.75;4.82;;;;;;;;;;5103168;27;20056;-62
2024/01/21 09:33:13;;;;;;;8.38;4.70;;;;;;;;;;5104611;27;20139;-59
2024/01/21 09:35:39;;;;;;;8.85;4.78;;;;;;;;;;5087803;27;20396;-61
2024/01/21 09:38:08;;;;;;;6.45;4.95;;;;;;;;;;5100346;28;20063;-62
2024/01/21 09:40:34;;;;;;;6.38;4.15;;;;;;;;;;5105189;27;20162;-61
2024/01/21 09:43:01;;;;;;;7.35;4.85;;;;;;;;;;5103617;28;20051;-60
2024/01/21 09:45:29;;;;;;;7.22;4.97;;;;;;;;;;5105090;27;20059;-61
2024/01/21 09:47:56;;;;;;;10.80;5.55;;;;;;;;;;5104102;27;20114;-62
2024/01/21 09:50:23;;;;;;;8.57;5.07;;;;;;;;;;5085825;27;20140;-60
2024/01/21 09:52:54;;;;;;;7.32;4.70;;;;;;;;;;5104954;27;20117;-62
2024/01/21 09:55:23;;;;;;;8.10;4.85;;;;;;;;;;5085109;27;20064;-61
2024/01/21 09:57:50;;;;;;;8.10;4.97;;;;;;;;;;5085130;28;20056;-59
2024/01/21 10:00:17;;;;;;;8.02;5.45;;;;;;;;;;5105155;27;20048;-62
2024/01/21 10:02:44;;;;;;;7.60;4.70;;;;;;;;;;5104713;27;20056;-60
2024/01/21 10:05:10;;;;;;;7.15;5.00;;;;;;;;;;5094846;27;20056;-62
2024/01/21 10:07:38;;;;;;;8.32;5.25;;;;;;;;;;5105390;27;20138;-61
2024/01/21 10:10:06;;;;;;;8.25;5.50;;;;;;;;;;5104335;27;20173;-61
2024/01/21 10:12:33;;;;;;;7.03;5.20;;;;;;;;;;5104698;27;20063;-60
2024/01/21 10:14:59;;;;;;;8.13;5.05;;;;;;;;;;5096601;27;20061;-61
2024/01/21 10:17:25;;;;;;;9.50;5.70;;;;;;;;;;5095665;28;20056;-61
2024/01/21 10:19:52;;;;;;;9.15;5.70;;;;;;;;;;5103783;27;20048;-61
2024/01/21 10:22:21;;;;;;;9.35;5.93;;;;;;;;;;5102158;27;20052;-62
2024/01/21 10:24:49;;;;;;;8.65;5.20;;;;;;;;;;5085117;28;20172;-62
2024/01/21 10:27:16;;;;;;;7.97;5.45;;;;;;;;;;5089697;28;20243;-61
2024/01/21 10:29:43;;;;;;;6.68;5.38;;;;;;;;;;5096939;28;20052;-60
2024/01/21 10:32:10;;;;;;;10.18;5.80;;;;;;;;;;5088650;27;20053;-62
2024/01/21 10:34:38;;;;;;;7.82;5.05;;;;;;;;;;5083097;28;20055;-61
2024/01/21 10:37:06;;;;;;;9.23;5.80;;;;;;;;;;5083905;28;20068;-63
2024/01/21 10:39:34;;;;;;;6.70;5.00;;;;;;;;;;5087872;28;20454;-62
2024/01/21 10:42:01;;;;;;;9.10;5.10;;;;;;;;;;5089253;28;20078;-61
2024/01/21 10:44:28;;;;;;;9.52;5.70;;;;;;;;;;5104520;27;20142;-63
2024/01/21 10:46:57;;;;;;;6.22;4.78;;;;;;;;;;5123205;27;20092;-61
2024/01/21 10:49:24;;;;;;;8.05;5.97;;;;;;;;;;5094865;27;20056;-60
2024/01/21 10:51:52;;;;;;;8.57;5.50;;;;;;;;;;5103895;28;20130;-61
2024/01/21 10:54:18;;;;;;;9.18;5.82;;;;;;;;;;5088681;28;20057;-61
2024/01/21 10:56:47;;;;;;;6.80;4.72;;;;;;;;;;5088231;28;20579;-61
2024/01/21 10:59:13;;;;;;;8.23;5.38;;;;;;;;;;5103585;27;20129;-60
2024/01/21 11:01:40;;;;;;;7.00;5.70;;;;;;;;;;5102055;27;20494;-61
2024/01/21 11:04:11;;;;;;;11.05;5.82;;;;;;;;;;5103893;27;20080;-61
2024/01/21 11:06:42;;;;;;;8.70;6.25;;;;;;;;;;5096580;27;20177;-62
2024/01/21 11:09:08;;;;;;;9.13;5.45;;;;;;;;;;5082450;28;20058;-61
2024/01/21 11:11:44;;;;;;;9.88;6.45;;;;;;;;;;5083468;28;20517;-61
2024/01/21 11:14:28;;;;;;;8.85;5.57;;;;;;;;;;5092851;28;20059;-61
2024/01/21 11:16:55;;;;;;;8.00;5.93;;;;;;;;;;5096655;27;20056;-61
2024/01/21 11:19:23;;;;;;;9.60;4.82;;;;;;;;;;5091663;28;20056;-62
2024/01/21 11:21:59;;;;;;;10.77;5.32;;;;;;;;;;5084547;28;20056;-62
2024/01/21 11:24:29;;;;;;;8.63;5.60;;;;;;;;;;5082719;28;20056;-62
2024/01/21 11:26:57;;;;;;;7.70;5.32;;;;;;;;;;5082827;28;20055;-62
2024/01/21 11:29:23;;;;;;;13.55;6.68;;;;;;;;;;5083237;28;21031;-60
2024/01/21 11:32:00;;;;;;;9.48;5.82;;;;;;;;;;5097246;28;20052;-61
2024/01/21 11:34:39;;;;;;;12.07;6.28;;;;;;;;;;5103782;28;20567;-60
2024/01/21 11:37:06;;;;;;;7.85;5.60;;;;;;;;;;5103424;27;20572;-61
2024/01/21 11:39:32;;;;;;;7.95;5.80;;;;;;;;;;5102220;28;20368;-61
2024/01/21 11:41:59;;;;;;;11.48;5.70;;;;;;;;;;5102043;27;20477;-62
2024/01/21 11:44:27;;;;;;;8.15;5.10;;;;;;;;;;5103178;27;20611;-61
2024/01/21 11:46:57;;;;;;;9.43;6.20;;;;;;;;;;5102470;27;20044;-61
2024/01/21 11:49:23;;;;;;;9.32;5.63;;;;;;;;;;5101937;27;20052;-61
2024/01/21 11:51:51;;;;;;;6.82;5.43;;;;;;;;;;5103068;27;20055;-61
2024/01/21 11:54:19;;;;;;;11.23;6.25;;;;;;;;;;5103514;27;20048;-62
2024/01/21 11:56:46;;;;;;;9.15;6.25;;;;;;;;;;5102989;27;20506;-62
2024/01/21 11:59:13;;;;;;;9.52;6.07;;;;;;;;;;5103687;27;20044;-62
2024/01/21 12:01:39;;;;;;;8.02;5.53;;;;;;;;;;5102935;27;20512;-59
2024/01/21 12:04:07;;;;;;;7.68;5.13;;;;;;;;;;5102714;27;20052;-62
2024/01/21 12:06:50;;;;;;;10.23;5.93;;;;;;;;;;5084016;28;20059;-62
2024/01/21 12:09:17;;;;;;;8.65;6.10;;;;;;;;;;5103169;27;20102;-61
2024/01/21 12:11:43;;;;;;;9.65;6.22;;;;;;;;;;5102836;27;20622;-61
2024/01/21 12:14:16;;;;;;;8.70;6.53;;;;;;;;;;5090811;27;20459;-60
2024/01/21 12:16:43;;;;;;;8.75;5.63;;;;;;;;;;5099801;28;20059;-61
2024/01/21 12:19:10;;;;;;;12.15;6.47;;;;;;;;;;5102622;27;20569;-60
2024/01/21 12:21:37;;;;;;;10.10;5.72;;;;;;;;;;5099176;27;20056;-61
2024/01/21 12:24:04;;;;;;;8.32;5.60;;;;;;;;;;5112316;27;20156;-60
2024/01/21 12:26:30;;;;;;;8.80;5.70;;;;;;;;;;5089961;27;20135;-60
2024/01/21 12:28:57;;;;;;;8.82;5.97;;;;;;;;;;5105465;28;20056;-59
2024/01/21 12:31:28;;;;;;;10.80;6.72;;;;;;;;;;5101451;27;20054;-61
2024/01/21 12:33:56;;;;;;;9.60;7.15;;;;;;;;;;5089971;28;20681;-63
2024/01/21 12:36:23;;;;;;;9.85;6.00;;;;;;;;;;5108472;27;20052;-62
2024/01/21 12:38:50;;;;;;;9.50;6.00;;;;;;;;;;5099973;27;20052;-61
2024/01/21 12:41:17;;;;;;;10.18;6.18;;;;;;;;;;5095902;28;20051;-62
2024/01/21 12:43:45;;;;;;;10.00;5.80;;;;;;;;;;5104890;28;20056;-62
2024/01/21 12:46:12;;;;;;;8.43;5.88;;;;;;;;;;5106722;27;20059;-59
2024/01/21 12:48:38;;;;;;;11.38;7.03;;;;;;;;;;5094538;27;20053;-61
2024/01/21 12:51:05;;;;;;;12.10;6.53;;;;;;;;;;5106073;27;20052;-62
2024/01/21 12:53:31;;;;;;;10.93;6.20;;;;;;;;;;5104517;27;20129;-61
2024/01/21 12:55:57;;;;;;;9.75;6.28;;;;;;;;;;5098504;27;20052;-60
2024/01/21 12:58:24;;;;;;;16.90;6.93;;;;;;;;;;5102353;27;20113;-61
2024/01/21 13:00:50;;;;;;;13.20;6.55;;;;;;;;;;5096033;28;20425;-60
2024/01/21 13:03:17;;;;;;;10.57;6.82;;;;;;;;;;5111111;27;20047;-61
2024/01/21 13:05:45;;;;;;;9.65;5.95;;;;;;;;;;5099546;27;20187;-60
2024/01/21 13:08:12;;;;;;;9.93;6.65;;;;;;;;;;5098330;27;20056;-62
2024/01/21 13:10:38;;;;;;;11.27;6.57;;;;;;;;;;5103417;27;20059;-62
2024/01/21 13:13:05;;;;;;;12.27;6.63;;;;;;;;;;5099375;27;20056;-61
2024/01/21 13:15:32;;;;;;;16.58;6.30;;;;;;;;;;5104277;27;20087;-62
2024/01/21 13:17:59;;;;;;;10.48;7.13;;;;;;;;;;5107152;27;20596;-61
2024/01/21 13:20:26;;;;;;;9.93;6.05;;;;;;;;;;5099075;28;20052;-61
2024/01/21 13:22:53;;;;;;;9.10;6.60;;;;;;;;;;5103492;27;20052;-61
2024/01/21 13:25:23;;;;;;;10.68;7.40;;;;;;;;;;5103612;27;20539;-62
2024/01/21 13:28:06;;;;;;;14.10;6.10;;;;;;;;;;5105355;28;20589;-62
2024/01/21 13:30:43;;;;;;;13.02;6.43;;;;;;;;;;5092381;27;20052;-62
2024/01/21 13:33:13;;;;;;;12.00;7.03;;;;;;;;;;5096444;27;20052;-61
2024/01/21 13:35:44;;;;;;;13.98;7.10;;;;;;;;;;5103270;28;20052;-61
2024/01/21 13:38:16;;;;;;;15.52;7.20;;;;;;;;;;5106919;27;20162;-62
2024/01/21 13:40:43;;;;;;;13.15;6.75;;;;;;;;;;5095252;27;20053;-61
2024/01/21 13:43:09;;;;;;;9.68;7.13;;;;;;;;;;5105118;28;20040;-63
2024/01/21 13:45:36;;;;;;;13.52;6.43;;;;;;;;;;5106492;27;20609;-58
2024/01/21 13:48:04;;;;;;;13.15;7.30;;;;;;;;;;5099577;27;20056;-62
2024/01/21 13:50:31;;;;;;;11.32;7.22;;;;;;;;;;5094563;27;20071;-61
2024/01/21 13:53:00;;;;;;;14.05;7.50;;;;;;;;;;5095141;27;20522;-61
2024/01/21 13:55:27;;;;;;;12.43;7.47;;;;;;;;;;5101169;28;20517;-60
2024/01/21 13:57:54;;;;;;;10.90;6.68;;;;;;;;;;5104278;27;20462;-63
2024/01/21 14:00:22;;;;;;;13.60;7.25;;;;;;;;;;5102968;27;20525;-59
2024/01/21 14:02:49;;;;;;;10.00;7.07;;;;;;;;;;5102468;28;20652;-62
2024/01/21 14:05:16;;;;;;;9.77;6.75;;;;;;;;;;5101185;27;20083;-62
2024/01/21 14:07:42;;;;;;;13.10;7.35;;;;;;;;;;5103785;27;20119;-59
2024/01/21 14:10:09;;;;;;;10.52;6.90;;;;;;;;;;5103022;27;20051;-62
2024/01/21 14:12:36;;;;;;;10.45;7.05;;;;;;;;;;5099047;27;20048;-61
2024/01/21 14:15:02;;;;;;;10.95;7.93;;;;;;;;;;5094008;28;20494;-62
2024/01/21 14:17:29;;;;;;;12.80;6.68;;;;;;;;;;5103020;27;20060;-62
2024/01/21 14:19:55;;;;;;;11.82;6.43;;;;;;;;;;5103358;27;20055;-62
2024/01/21 14:22:22;;;;;;;13.43;6.68;;;;;;;;;;5102557;27;20071;-61
2024/01/21 14:24:49;;;;;;;12.05;7.57;;;;;;;;;;5098166;27;20145;-60
2024/01/21 14:27:16;;;;;;;15.23;7.13;;;;;;;;;;5101734;27;20056;-61
2024/01/21 14:29:48;;;;;;;10.98;7.43;;;;;;;;;;5100964;27;20173;-61
2024/01/21 14:32:14;;;;;;;12.52;7.75;;;;;;;;;;5097918;27;20048;-58
2024/01/21 14:34:40;;;;;;;13.50;6.97;;;;;;;;;;5097036;27;20489;-61
2024/01/21 14:37:07;;;;;;;11.45;7.00;;;;;;;;;;5092125;27;20053;-61
2024/01/21 14:39:34;;;;;;;15.27;7.07;;;;;;;;;;5103013;28;20072;-60